sensor_id;sensor_type;location;lat;lon;timestamp;P1;durP1;ratioP1;P2;durP2;ratioP2
46022;SDS011;31756;47.936;16.224;2022-08-25T00:01:00;17.52;;;11.63;;
46022;SDS011;31756;47.936;16.224;2022-08-25T00:03:25;19.23;;;12.00;;
46022;SDS011;31756;47.936;16.224;2022-08-25T00:05:51;15.20;;;11.60;;
46022;SDS011;31756;47.936;16.224;2022-08-25T00:08:16;20.23;;;12.45;;
46022;SDS011;31756;47.936;16.224;2022-08-25T00:10:41;20.65;;;14.35;;
46022;SDS011;31756;47.936;16.224;2022-08-25T00:13:06;21.48;;;13.40;;
46022;SDS011;31756;47.936;16.224;2022-08-25T00:15:32;17.10;;;13.25;;
46022;SDS011;31756;47.936;16.224;2022-08-25T00:17:57;26.30;;;13.88;;
46022;SDS011;31756;47.936;16.224;2022-08-25T00:20:23;25.75;;;13.77;;
46022;SDS011;31756;47.936;16.224;2022-08-25T00:22:49;24.38;;;14.57;;
46022;SDS011;31756;47.936;16.224;2022-08-25T00:25:15;19.65;;;14.05;;
46022;SDS011;31756;47.936;16.224;2022-08-25T00:27:40;33.03;;;16.70;;
46022;SDS011;31756;47.936;16.224;2022-08-25T00:30:07;21.50;;;15.05;;
46022;SDS011;31756;47.936;16.224;2022-08-25T00:32:33;24.30;;;16.15;;
46022;SDS011;31756;47.936;16.224;2022-08-25T00:34:58;26.67;;;15.30;;
46022;SDS011;31756;47.936;16.224;2022-08-25T00:37:24;35.60;;;18.45;;
46022;SDS011;31756;47.936;16.224;2022-08-25T00:39:49;30.58;;;18.85;;
46022;SDS011;31756;47.936;16.224;2022-08-25T00:42:15;36.88;;;20.58;;
46022;SDS011;31756;47.936;16.224;2022-08-25T00:44:40;27.35;;;18.73;;
46022;SDS011;31756;47.936;16.224;2022-08-25T00:47:09;37.58;;;22.00;;
46022;SDS011;31756;47.936;16.224;2022-08-25T00:49:51;36.60;;;20.17;;
46022;SDS011;31756;47.936;16.224;2022-08-25T00:54:47;35.72;;;20.40;;
46022;SDS011;31756;47.936;16.224;2022-08-25T00:57:14;38.95;;;22.70;;
46022;SDS011;31756;47.936;16.224;2022-08-25T00:59:40;39.17;;;22.60;;
46022;SDS011;31756;47.936;16.224;2022-08-25T01:02:07;35.85;;;22.02;;
46022;SDS011;31756;47.936;16.224;2022-08-25T01:04:32;40.67;;;23.63;;
46022;SDS011;31756;47.936;16.224;2022-08-25T01:06:57;28.20;;;20.83;;
46022;SDS011;31756;47.936;16.224;2022-08-25T01:09:24;34.40;;;22.70;;
46022;SDS011;31756;47.936;16.224;2022-08-25T01:11:49;45.17;;;24.48;;
46022;SDS011;31756;47.936;16.224;2022-08-25T01:14:16;32.63;;;22.50;;
46022;SDS011;31756;47.936;16.224;2022-08-25T01:16:41;30.67;;;21.63;;
46022;SDS011;31756;47.936;16.224;2022-08-25T01:19:08;29.02;;;22.45;;
46022;SDS011;31756;47.936;16.224;2022-08-25T01:21:38;38.85;;;22.10;;
46022;SDS011;31756;47.936;16.224;2022-08-25T01:24:04;42.50;;;24.00;;
46022;SDS011;31756;47.936;16.224;2022-08-25T01:26:31;35.03;;;22.25;;
46022;SDS011;31756;47.936;16.224;2022-08-25T01:28:57;32.28;;;22.33;;
46022;SDS011;31756;47.936;16.224;2022-08-25T01:31:42;41.30;;;24.85;;
46022;SDS011;31756;47.936;16.224;2022-08-25T01:34:08;33.78;;;22.63;;
46022;SDS011;31756;47.936;16.224;2022-08-25T01:36:34;36.75;;;23.95;;
46022;SDS011;31756;47.936;16.224;2022-08-25T01:38:59;34.00;;;22.42;;
46022;SDS011;31756;47.936;16.224;2022-08-25T01:43:53;40.17;;;22.83;;
46022;SDS011;31756;47.936;16.224;2022-08-25T01:46:18;28.35;;;20.42;;
46022;SDS011;31756;47.936;16.224;2022-08-25T01:48:43;40.33;;;21.05;;
46022;SDS011;31756;47.936;16.224;2022-08-25T01:51:08;32.20;;;20.88;;
46022;SDS011;31756;47.936;16.224;2022-08-25T01:53:34;27.00;;;20.55;;
46022;SDS011;31756;47.936;16.224;2022-08-25T01:56:06;25.42;;;17.98;;
46022;SDS011;31756;47.936;16.224;2022-08-25T01:58:36;34.15;;;17.17;;
46022;SDS011;31756;47.936;16.224;2022-08-25T02:01:03;28.15;;;18.98;;
46022;SDS011;31756;47.936;16.224;2022-08-25T02:03:29;29.25;;;18.58;;
46022;SDS011;31756;47.936;16.224;2022-08-25T02:05:55;28.90;;;19.27;;
46022;SDS011;31756;47.936;16.224;2022-08-25T02:08:21;26.35;;;18.00;;
46022;SDS011;31756;47.936;16.224;2022-08-25T02:10:48;24.73;;;17.45;;
46022;SDS011;31756;47.936;16.224;2022-08-25T02:13:13;25.63;;;18.30;;
46022;SDS011;31756;47.936;16.224;2022-08-25T02:15:40;27.58;;;18.05;;
46022;SDS011;31756;47.936;16.224;2022-08-25T02:18:06;24.63;;;18.20;;
46022;SDS011;31756;47.936;16.224;2022-08-25T02:20:31;30.45;;;19.25;;
46022;SDS011;31756;47.936;16.224;2022-08-25T02:22:56;22.77;;;19.55;;
46022;SDS011;31756;47.936;16.224;2022-08-25T02:25:21;22.23;;;17.90;;
46022;SDS011;31756;47.936;16.224;2022-08-25T02:27:46;25.23;;;18.92;;
46022;SDS011;31756;47.936;16.224;2022-08-25T02:30:12;25.10;;;16.98;;
46022;SDS011;31756;47.936;16.224;2022-08-25T02:32:38;26.33;;;17.80;;
46022;SDS011;31756;47.936;16.224;2022-08-25T02:35:04;33.55;;;18.20;;
46022;SDS011;31756;47.936;16.224;2022-08-25T02:37:30;28.02;;;19.40;;
46022;SDS011;31756;47.936;16.224;2022-08-25T02:39:55;26.50;;;17.88;;
46022;SDS011;31756;47.936;16.224;2022-08-25T02:42:23;32.60;;;17.65;;
46022;SDS011;31756;47.936;16.224;2022-08-25T02:44:48;23.10;;;17.83;;
46022;SDS011;31756;47.936;16.224;2022-08-25T02:47:14;31.65;;;18.73;;
46022;SDS011;31756;47.936;16.224;2022-08-25T02:49:39;24.08;;;18.40;;
46022;SDS011;31756;47.936;16.224;2022-08-25T02:52:04;29.13;;;19.17;;
46022;SDS011;31756;47.936;16.224;2022-08-25T02:54:29;25.00;;;18.27;;
46022;SDS011;31756;47.936;16.224;2022-08-25T02:56:55;29.13;;;18.02;;
46022;SDS011;31756;47.936;16.224;2022-08-25T02:59:20;29.58;;;18.55;;
46022;SDS011;31756;47.936;16.224;2022-08-25T03:01:45;28.65;;;16.75;;
46022;SDS011;31756;47.936;16.224;2022-08-25T03:04:11;29.25;;;17.27;;
46022;SDS011;31756;47.936;16.224;2022-08-25T03:06:36;23.77;;;17.55;;
46022;SDS011;31756;47.936;16.224;2022-08-25T03:09:02;23.63;;;16.73;;
46022;SDS011;31756;47.936;16.224;2022-08-25T03:11:28;23.85;;;17.42;;
46022;SDS011;31756;47.936;16.224;2022-08-25T03:13:53;20.10;;;17.60;;
46022;SDS011;31756;47.936;16.224;2022-08-25T03:16:19;20.55;;;16.23;;
46022;SDS011;31756;47.936;16.224;2022-08-25T03:18:44;27.50;;;18.25;;
46022;SDS011;31756;47.936;16.224;2022-08-25T03:21:10;23.58;;;17.30;;
46022;SDS011;31756;47.936;16.224;2022-08-25T03:23:35;25.73;;;16.60;;
46022;SDS011;31756;47.936;16.224;2022-08-25T03:26:01;23.67;;;15.38;;
46022;SDS011;31756;47.936;16.224;2022-08-25T03:28:45;26.27;;;17.83;;
46022;SDS011;31756;47.936;16.224;2022-08-25T03:31:10;27.05;;;18.45;;
46022;SDS011;31756;47.936;16.224;2022-08-25T03:33:38;26.58;;;17.55;;
46022;SDS011;31756;47.936;16.224;2022-08-25T03:36:04;24.10;;;17.45;;
46022;SDS011;31756;47.936;16.224;2022-08-25T03:38:29;21.95;;;17.00;;
46022;SDS011;31756;47.936;16.224;2022-08-25T03:40:55;25.50;;;17.65;;
46022;SDS011;31756;47.936;16.224;2022-08-25T03:43:20;26.55;;;16.92;;
46022;SDS011;31756;47.936;16.224;2022-08-25T03:45:46;23.05;;;16.85;;
46022;SDS011;31756;47.936;16.224;2022-08-25T03:48:12;21.25;;;16.25;;
46022;SDS011;31756;47.936;16.224;2022-08-25T03:50:42;21.48;;;17.63;;
46022;SDS011;31756;47.936;16.224;2022-08-25T03:53:08;28.77;;;18.38;;
46022;SDS011;31756;47.936;16.224;2022-08-25T03:55:33;19.48;;;17.35;;
46022;SDS011;31756;47.936;16.224;2022-08-25T03:57:58;24.40;;;18.70;;
46022;SDS011;31756;47.936;16.224;2022-08-25T04:00:24;27.60;;;19.00;;
46022;SDS011;31756;47.936;16.224;2022-08-25T04:02:49;23.60;;;17.40;;
46022;SDS011;31756;47.936;16.224;2022-08-25T04:05:14;26.23;;;17.52;;
46022;SDS011;31756;47.936;16.224;2022-08-25T04:07:40;21.88;;;17.63;;
46022;SDS011;31756;47.936;16.224;2022-08-25T04:10:06;30.00;;;17.70;;
46022;SDS011;31756;47.936;16.224;2022-08-25T04:12:31;28.27;;;18.58;;
46022;SDS011;31756;47.936;16.224;2022-08-25T04:14:57;30.00;;;19.00;;
46022;SDS011;31756;47.936;16.224;2022-08-25T04:17:22;26.67;;;18.08;;
46022;SDS011;31756;47.936;16.224;2022-08-25T04:19:49;21.80;;;17.55;;
46022;SDS011;31756;47.936;16.224;2022-08-25T04:22:14;27.42;;;17.10;;
46022;SDS011;31756;47.936;16.224;2022-08-25T04:24:40;25.67;;;16.85;;
46022;SDS011;31756;47.936;16.224;2022-08-25T04:27:05;27.90;;;18.15;;
46022;SDS011;31756;47.936;16.224;2022-08-25T04:29:30;29.08;;;17.80;;
46022;SDS011;31756;47.936;16.224;2022-08-25T04:31:56;34.00;;;19.40;;
46022;SDS011;31756;47.936;16.224;2022-08-25T04:34:22;24.27;;;16.85;;
46022;SDS011;31756;47.936;16.224;2022-08-25T04:36:48;23.00;;;17.33;;
46022;SDS011;31756;47.936;16.224;2022-08-25T04:39:15;27.77;;;19.38;;
46022;SDS011;31756;47.936;16.224;2022-08-25T04:41:40;26.88;;;18.55;;
46022;SDS011;31756;47.936;16.224;2022-08-25T04:44:06;27.00;;;18.45;;
46022;SDS011;31756;47.936;16.224;2022-08-25T04:46:32;25.23;;;18.52;;
46022;SDS011;31756;47.936;16.224;2022-08-25T04:48:58;25.33;;;17.73;;
46022;SDS011;31756;47.936;16.224;2022-08-25T04:51:31;31.15;;;18.77;;
46022;SDS011;31756;47.936;16.224;2022-08-25T04:53:58;30.52;;;18.85;;
46022;SDS011;31756;47.936;16.224;2022-08-25T04:56:24;21.90;;;17.17;;
46022;SDS011;31756;47.936;16.224;2022-08-25T04:58:50;26.40;;;18.30;;
46022;SDS011;31756;47.936;16.224;2022-08-25T05:01:17;28.05;;;18.25;;
46022;SDS011;31756;47.936;16.224;2022-08-25T05:03:43;25.95;;;17.15;;
46022;SDS011;31756;47.936;16.224;2022-08-25T05:06:09;29.33;;;18.80;;
46022;SDS011;31756;47.936;16.224;2022-08-25T05:08:34;25.25;;;18.15;;
46022;SDS011;31756;47.936;16.224;2022-08-25T05:11:04;25.10;;;17.75;;
46022;SDS011;31756;47.936;16.224;2022-08-25T05:13:29;30.83;;;18.10;;
46022;SDS011;31756;47.936;16.224;2022-08-25T05:15:55;23.75;;;17.73;;
46022;SDS011;31756;47.936;16.224;2022-08-25T05:18:22;27.48;;;18.90;;
46022;SDS011;31756;47.936;16.224;2022-08-25T05:20:48;28.42;;;19.55;;
46022;SDS011;31756;47.936;16.224;2022-08-25T05:23:14;29.65;;;18.35;;
46022;SDS011;31756;47.936;16.224;2022-08-25T05:25:39;27.45;;;17.15;;
46022;SDS011;31756;47.936;16.224;2022-08-25T05:28:06;26.27;;;17.52;;
46022;SDS011;31756;47.936;16.224;2022-08-25T05:30:31;28.80;;;19.33;;
46022;SDS011;31756;47.936;16.224;2022-08-25T05:32:56;27.85;;;18.75;;
46022;SDS011;31756;47.936;16.224;2022-08-25T05:35:22;24.33;;;18.58;;
46022;SDS011;31756;47.936;16.224;2022-08-25T05:37:47;25.58;;;17.40;;
46022;SDS011;31756;47.936;16.224;2022-08-25T05:40:12;28.45;;;17.55;;
46022;SDS011;31756;47.936;16.224;2022-08-25T05:42:38;28.85;;;19.00;;
46022;SDS011;31756;47.936;16.224;2022-08-25T05:45:04;26.15;;;17.42;;
46022;SDS011;31756;47.936;16.224;2022-08-25T05:47:30;22.98;;;17.75;;
46022;SDS011;31756;47.936;16.224;2022-08-25T05:49:55;24.33;;;18.35;;
46022;SDS011;31756;47.936;16.224;2022-08-25T05:52:20;27.20;;;18.30;;
46022;SDS011;31756;47.936;16.224;2022-08-25T05:54:46;29.17;;;17.95;;
46022;SDS011;31756;47.936;16.224;2022-08-25T05:57:11;29.17;;;17.15;;
46022;SDS011;31756;47.936;16.224;2022-08-25T05:59:36;24.05;;;18.98;;
46022;SDS011;31756;47.936;16.224;2022-08-25T06:02:01;26.20;;;16.65;;
46022;SDS011;31756;47.936;16.224;2022-08-25T06:04:45;22.20;;;16.08;;
46022;SDS011;31756;47.936;16.224;2022-08-25T06:07:11;24.38;;;16.73;;
46022;SDS011;31756;47.936;16.224;2022-08-25T06:09:37;24.67;;;17.73;;
46022;SDS011;31756;47.936;16.224;2022-08-25T06:12:02;20.20;;;16.00;;
46022;SDS011;31756;47.936;16.224;2022-08-25T06:14:28;31.90;;;19.77;;
46022;SDS011;31756;47.936;16.224;2022-08-25T06:16:53;22.40;;;17.98;;
46022;SDS011;31756;47.936;16.224;2022-08-25T06:19:18;27.58;;;18.08;;
46022;SDS011;31756;47.936;16.224;2022-08-25T06:21:43;34.08;;;18.05;;
46022;SDS011;31756;47.936;16.224;2022-08-25T06:24:08;29.23;;;18.55;;
46022;SDS011;31756;47.936;16.224;2022-08-25T06:26:34;22.77;;;17.05;;
46022;SDS011;31756;47.936;16.224;2022-08-25T06:28:59;27.67;;;17.20;;
46022;SDS011;31756;47.936;16.224;2022-08-25T06:31:25;24.65;;;18.55;;
46022;SDS011;31756;47.936;16.224;2022-08-25T06:33:50;21.63;;;16.23;;
46022;SDS011;31756;47.936;16.224;2022-08-25T06:36:16;27.73;;;18.40;;
46022;SDS011;31756;47.936;16.224;2022-08-25T06:38:41;24.45;;;18.15;;
46022;SDS011;31756;47.936;16.224;2022-08-25T06:41:07;30.52;;;20.00;;
46022;SDS011;31756;47.936;16.224;2022-08-25T06:43:38;26.13;;;18.42;;
46022;SDS011;31756;47.936;16.224;2022-08-25T06:46:17;23.15;;;18.55;;
46022;SDS011;31756;47.936;16.224;2022-08-25T06:48:43;35.17;;;20.52;;
46022;SDS011;31756;47.936;16.224;2022-08-25T06:51:10;35.55;;;21.52;;
46022;SDS011;31756;47.936;16.224;2022-08-25T06:53:36;28.92;;;20.85;;
46022;SDS011;31756;47.936;16.224;2022-08-25T06:56:01;28.45;;;21.85;;
46022;SDS011;31756;47.936;16.224;2022-08-25T06:58:27;33.53;;;22.50;;
46022;SDS011;31756;47.936;16.224;2022-08-25T07:00:52;36.13;;;20.48;;
46022;SDS011;31756;47.936;16.224;2022-08-25T07:03:18;31.27;;;21.88;;
46022;SDS011;31756;47.936;16.224;2022-08-25T07:05:53;32.13;;;22.23;;
46022;SDS011;31756;47.936;16.224;2022-08-25T07:10:44;24.40;;;19.00;;
46022;SDS011;31756;47.936;16.224;2022-08-25T07:13:09;29.90;;;20.88;;
46022;SDS011;31756;47.936;16.224;2022-08-25T07:15:38;23.65;;;19.35;;
46022;SDS011;31756;47.936;16.224;2022-08-25T07:18:03;26.73;;;18.95;;
46022;SDS011;31756;47.936;16.224;2022-08-25T07:20:29;28.45;;;18.90;;
46022;SDS011;31756;47.936;16.224;2022-08-25T07:22:55;28.65;;;20.48;;
46022;SDS011;31756;47.936;16.224;2022-08-25T07:25:20;27.70;;;18.13;;
46022;SDS011;31756;47.936;16.224;2022-08-25T07:27:49;33.33;;;20.85;;
46022;SDS011;31756;47.936;16.224;2022-08-25T07:30:15;22.13;;;18.52;;
46022;SDS011;31756;47.936;16.224;2022-08-25T07:32:41;28.00;;;20.15;;
46022;SDS011;31756;47.936;16.224;2022-08-25T07:35:06;28.17;;;19.90;;
46022;SDS011;31756;47.936;16.224;2022-08-25T07:37:46;27.20;;;18.92;;
46022;SDS011;31756;47.936;16.224;2022-08-25T07:40:19;29.98;;;19.17;;
46022;SDS011;31756;47.936;16.224;2022-08-25T07:42:47;29.70;;;18.10;;
46022;SDS011;31756;47.936;16.224;2022-08-25T07:45:13;29.00;;;21.50;;
46022;SDS011;31756;47.936;16.224;2022-08-25T07:47:38;28.58;;;18.77;;
46022;SDS011;31756;47.936;16.224;2022-08-25T07:50:07;30.90;;;20.90;;
46022;SDS011;31756;47.936;16.224;2022-08-25T07:52:33;30.15;;;20.98;;
46022;SDS011;31756;47.936;16.224;2022-08-25T07:54:58;28.65;;;20.17;;
46022;SDS011;31756;47.936;16.224;2022-08-25T07:57:24;26.50;;;19.48;;
46022;SDS011;31756;47.936;16.224;2022-08-25T07:59:50;30.00;;;21.55;;
46022;SDS011;31756;47.936;16.224;2022-08-25T08:02:16;28.90;;;20.80;;
46022;SDS011;31756;47.936;16.224;2022-08-25T08:04:41;31.02;;;21.15;;
46022;SDS011;31756;47.936;16.224;2022-08-25T08:07:09;27.30;;;19.35;;
46022;SDS011;31756;47.936;16.224;2022-08-25T08:09:35;27.95;;;22.88;;
46022;SDS011;31756;47.936;16.224;2022-08-25T08:12:00;35.15;;;24.60;;
46022;SDS011;31756;47.936;16.224;2022-08-25T08:14:25;31.38;;;21.25;;
46022;SDS011;31756;47.936;16.224;2022-08-25T08:16:51;33.72;;;21.38;;
46022;SDS011;31756;47.936;16.224;2022-08-25T08:19:18;34.35;;;21.50;;
46022;SDS011;31756;47.936;16.224;2022-08-25T08:21:44;28.60;;;21.83;;
46022;SDS011;31756;47.936;16.224;2022-08-25T08:24:10;29.48;;;20.48;;
46022;SDS011;31756;47.936;16.224;2022-08-25T08:26:36;32.05;;;20.10;;
46022;SDS011;31756;47.936;16.224;2022-08-25T08:29:01;30.30;;;20.80;;
46022;SDS011;31756;47.936;16.224;2022-08-25T08:31:27;31.08;;;21.85;;
46022;SDS011;31756;47.936;16.224;2022-08-25T08:33:53;31.08;;;21.40;;
46022;SDS011;31756;47.936;16.224;2022-08-25T08:36:18;30.42;;;19.38;;
46022;SDS011;31756;47.936;16.224;2022-08-25T08:38:44;27.52;;;21.02;;
46022;SDS011;31756;47.936;16.224;2022-08-25T08:41:16;29.08;;;21.05;;
46022;SDS011;31756;47.936;16.224;2022-08-25T08:44:05;25.70;;;21.00;;
46022;SDS011;31756;47.936;16.224;2022-08-25T08:46:38;28.65;;;20.27;;
46022;SDS011;31756;47.936;16.224;2022-08-25T08:49:08;32.95;;;21.02;;
46022;SDS011;31756;47.936;16.224;2022-08-25T08:51:38;28.15;;;19.88;;
46022;SDS011;31756;47.936;16.224;2022-08-25T08:54:10;29.25;;;19.80;;
46022;SDS011;31756;47.936;16.224;2022-08-25T08:56:38;31.40;;;19.00;;
46022;SDS011;31756;47.936;16.224;2022-08-25T08:59:08;29.00;;;18.77;;
46022;SDS011;31756;47.936;16.224;2022-08-25T09:01:38;26.85;;;19.65;;
46022;SDS011;31756;47.936;16.224;2022-08-25T09:04:14;28.25;;;18.80;;
46022;SDS011;31756;47.936;16.224;2022-08-25T09:06:44;21.50;;;18.27;;
46022;SDS011;31756;47.936;16.224;2022-08-25T09:09:12;24.15;;;17.00;;
46022;SDS011;31756;47.936;16.224;2022-08-25T09:22:37;21.00;;;15.32;;
46022;SDS011;31756;47.936;16.224;2022-08-25T09:27:48;24.00;;;15.77;;
46022;SDS011;31756;47.936;16.224;2022-08-25T09:30:18;19.10;;;14.63;;
46022;SDS011;31756;47.936;16.224;2022-08-25T09:32:45;15.73;;;13.20;;
46022;SDS011;31756;47.936;16.224;2022-08-25T09:35:30;19.80;;;14.57;;
46022;SDS011;31756;47.936;16.224;2022-08-25T09:40:21;20.60;;;15.27;;
46022;SDS011;31756;47.936;16.224;2022-08-25T09:42:49;23.38;;;15.65;;
46022;SDS011;31756;47.936;16.224;2022-08-25T09:45:17;22.05;;;15.75;;
46022;SDS011;31756;47.936;16.224;2022-08-25T09:47:54;18.42;;;13.65;;
46022;SDS011;31756;47.936;16.224;2022-08-25T09:50:19;20.42;;;14.65;;
46022;SDS011;31756;47.936;16.224;2022-08-25T09:52:44;17.98;;;13.70;;
46022;SDS011;31756;47.936;16.224;2022-08-25T09:57:48;18.75;;;13.70;;
46022;SDS011;31756;47.936;16.224;2022-08-25T10:00:24;18.95;;;12.88;;
46022;SDS011;31756;47.936;16.224;2022-08-25T10:05:36;16.38;;;11.38;;
46022;SDS011;31756;47.936;16.224;2022-08-25T10:08:03;14.73;;;11.95;;
46022;SDS011;31756;47.936;16.224;2022-08-25T10:10:36;15.65;;;13.75;;
46022;SDS011;31756;47.936;16.224;2022-08-25T10:13:02;15.77;;;12.57;;
46022;SDS011;31756;47.936;16.224;2022-08-25T10:15:36;16.97;;;12.73;;
46022;SDS011;31756;47.936;16.224;2022-08-25T10:18:18;15.35;;;12.93;;
46022;SDS011;31756;47.936;16.224;2022-08-25T10:20:44;13.13;;;11.73;;
46022;SDS011;31756;47.936;16.224;2022-08-25T10:23:24;16.05;;;12.43;;
46022;SDS011;31756;47.936;16.224;2022-08-25T10:25:51;16.08;;;12.05;;
46022;SDS011;31756;47.936;16.224;2022-08-25T10:28:19;15.13;;;13.07;;
46022;SDS011;31756;47.936;16.224;2022-08-25T10:30:55;17.52;;;11.60;;
46022;SDS011;31756;47.936;16.224;2022-08-25T10:36:06;15.13;;;12.00;;
46022;SDS011;31756;47.936;16.224;2022-08-25T10:38:35;13.85;;;11.77;;
46022;SDS011;31756;47.936;16.224;2022-08-25T10:48:58;14.35;;;11.90;;
46022;SDS011;31756;47.936;16.224;2022-08-25T10:56:35;12.48;;;11.13;;
46022;SDS011;31756;47.936;16.224;2022-08-25T11:01:31;14.07;;;12.65;;
46022;SDS011;31756;47.936;16.224;2022-08-25T11:04:02;15.48;;;12.35;;
46022;SDS011;31756;47.936;16.224;2022-08-25T11:06:39;14.55;;;11.52;;
46022;SDS011;31756;47.936;16.224;2022-08-25T11:09:11;17.02;;;12.27;;
46022;SDS011;31756;47.936;16.224;2022-08-25T11:16:57;14.13;;;11.40;;
46022;SDS011;31756;47.936;16.224;2022-08-25T11:22:11;13.77;;;10.68;;
46022;SDS011;31756;47.936;16.224;2022-08-25T11:27:31;12.32;;;10.73;;
46022;SDS011;31756;47.936;16.224;2022-08-25T11:32:28;12.35;;;11.07;;
46022;SDS011;31756;47.936;16.224;2022-08-25T11:34:59;13.35;;;11.60;;
46022;SDS011;31756;47.936;16.224;2022-08-25T11:37:25;15.38;;;12.15;;
46022;SDS011;31756;47.936;16.224;2022-08-25T11:40:10;15.18;;;11.20;;
46022;SDS011;31756;47.936;16.224;2022-08-25T11:48:07;12.02;;;9.68;;
46022;SDS011;31756;47.936;16.224;2022-08-25T11:50:36;12.88;;;10.80;;
46022;SDS011;31756;47.936;16.224;2022-08-25T11:53:25;14.65;;;10.27;;
46022;SDS011;31756;47.936;16.224;2022-08-25T11:55:52;15.13;;;10.77;;
46022;SDS011;31756;47.936;16.224;2022-08-25T12:00:46;13.02;;;10.85;;
46022;SDS011;31756;47.936;16.224;2022-08-25T12:14:44;16.15;;;10.35;;
46022;SDS011;31756;47.936;16.224;2022-08-25T12:19:22;12.40;;;10.52;;
46022;SDS011;31756;47.936;16.224;2022-08-25T12:21:47;16.48;;;11.32;;
46022;SDS011;31756;47.936;16.224;2022-08-25T12:24:14;12.73;;;10.65;;
46022;SDS011;31756;47.936;16.224;2022-08-25T12:29:28;12.55;;;11.15;;
46022;SDS011;31756;47.936;16.224;2022-08-25T12:32:16;12.68;;;11.07;;
46022;SDS011;31756;47.936;16.224;2022-08-25T12:37:30;11.25;;;9.98;;
46022;SDS011;31756;47.936;16.224;2022-08-25T12:39:57;13.85;;;9.43;;
46022;SDS011;31756;47.936;16.224;2022-08-25T12:42:27;13.18;;;9.63;;
46022;SDS011;31756;47.936;16.224;2022-08-25T12:47:41;13.18;;;8.50;;
46022;SDS011;31756;47.936;16.224;2022-08-25T12:52:52;11.95;;;9.02;;
46022;SDS011;31756;47.936;16.224;2022-08-25T12:55:19;14.73;;;9.90;;
46022;SDS011;31756;47.936;16.224;2022-08-25T12:57:45;12.23;;;8.68;;
46022;SDS011;31756;47.936;16.224;2022-08-25T13:00:28;10.95;;;9.02;;
46022;SDS011;31756;47.936;16.224;2022-08-25T13:05:43;12.73;;;8.30;;
46022;SDS011;31756;47.936;16.224;2022-08-25T13:11:03;9.82;;;8.35;;
46022;SDS011;31756;47.936;16.224;2022-08-25T13:16:00;8.60;;;7.70;;
46022;SDS011;31756;47.936;16.224;2022-08-25T13:18:27;16.45;;;8.30;;
46022;SDS011;31756;47.936;16.224;2022-08-25T13:21:03;7.90;;;7.15;;
46022;SDS011;31756;47.936;16.224;2022-08-25T13:23:30;9.35;;;7.15;;
46022;SDS011;31756;47.936;16.224;2022-08-25T13:25:57;13.45;;;8.10;;
46022;SDS011;31756;47.936;16.224;2022-08-25T13:28:25;8.77;;;7.88;;
46022;SDS011;31756;47.936;16.224;2022-08-25T13:30:58;8.80;;;7.97;;
46022;SDS011;31756;47.936;16.224;2022-08-25T13:33:23;10.65;;;7.25;;
46022;SDS011;31756;47.936;16.224;2022-08-25T13:35:51;10.50;;;6.30;;
46022;SDS011;31756;47.936;16.224;2022-08-25T13:38:35;9.02;;;6.07;;
46022;SDS011;31756;47.936;16.224;2022-08-25T13:41:01;7.05;;;6.38;;
46022;SDS011;31756;47.936;16.224;2022-08-25T13:43:26;10.05;;;7.78;;
46022;SDS011;31756;47.936;16.224;2022-08-25T13:45:52;8.98;;;8.13;;
46022;SDS011;31756;47.936;16.224;2022-08-25T13:48:37;13.90;;;8.80;;
46022;SDS011;31756;47.936;16.224;2022-08-25T13:51:24;9.50;;;7.32;;
46022;SDS011;31756;47.936;16.224;2022-08-25T13:53:49;7.70;;;6.85;;
46022;SDS011;31756;47.936;16.224;2022-08-25T13:56:21;7.60;;;6.80;;
46022;SDS011;31756;47.936;16.224;2022-08-25T13:58:47;7.60;;;6.88;;
46022;SDS011;31756;47.936;16.224;2022-08-25T14:01:17;8.82;;;6.03;;
46022;SDS011;31756;47.936;16.224;2022-08-25T14:03:44;8.15;;;6.65;;
46022;SDS011;31756;47.936;16.224;2022-08-25T14:08:39;8.30;;;6.67;;
46022;SDS011;31756;47.936;16.224;2022-08-25T14:13:33;8.75;;;7.03;;
46022;SDS011;31756;47.936;16.224;2022-08-25T14:20:58;7.10;;;6.40;;
46022;SDS011;31756;47.936;16.224;2022-08-25T14:23:25;6.45;;;5.82;;
46022;SDS011;31756;47.936;16.224;2022-08-25T14:25:53;6.85;;;6.13;;
46022;SDS011;31756;47.936;16.224;2022-08-25T14:28:20;5.82;;;5.40;;
46022;SDS011;31756;47.936;16.224;2022-08-25T14:30:50;6.10;;;5.50;;
46022;SDS011;31756;47.936;16.224;2022-08-25T14:33:17;7.88;;;5.72;;
46022;SDS011;31756;47.936;16.224;2022-08-25T14:35:45;6.93;;;6.28;;
46022;SDS011;31756;47.936;16.224;2022-08-25T14:38:10;6.88;;;6.28;;
46022;SDS011;31756;47.936;16.224;2022-08-25T14:40:36;6.43;;;5.90;;
46022;SDS011;31756;47.936;16.224;2022-08-25T14:43:01;6.55;;;6.03;;
46022;SDS011;31756;47.936;16.224;2022-08-25T14:45:27;10.15;;;7.20;;
46022;SDS011;31756;47.936;16.224;2022-08-25T14:47:52;7.30;;;6.60;;
46022;SDS011;31756;47.936;16.224;2022-08-25T14:50:18;10.27;;;6.65;;
46022;SDS011;31756;47.936;16.224;2022-08-25T14:52:44;12.20;;;6.75;;
46022;SDS011;31756;47.936;16.224;2022-08-25T14:55:09;6.88;;;6.18;;
46022;SDS011;31756;47.936;16.224;2022-08-25T14:57:35;6.78;;;6.28;;
46022;SDS011;31756;47.936;16.224;2022-08-25T15:00:01;6.50;;;5.95;;
46022;SDS011;31756;47.936;16.224;2022-08-25T15:02:27;7.30;;;6.32;;
46022;SDS011;31756;47.936;16.224;2022-08-25T15:04:55;7.07;;;6.50;;
46022;SDS011;31756;47.936;16.224;2022-08-25T15:07:21;8.65;;;6.22;;
46022;SDS011;31756;47.936;16.224;2022-08-25T15:10:05;7.10;;;6.40;;
46022;SDS011;31756;47.936;16.224;2022-08-25T15:12:31;7.95;;;7.15;;
46022;SDS011;31756;47.936;16.224;2022-08-25T15:14:57;7.00;;;6.25;;
46022;SDS011;31756;47.936;16.224;2022-08-25T15:17:22;8.45;;;6.28;;
46022;SDS011;31756;47.936;16.224;2022-08-25T15:19:47;10.07;;;6.93;;
46022;SDS011;31756;47.936;16.224;2022-08-25T15:22:12;7.38;;;5.80;;
46022;SDS011;31756;47.936;16.224;2022-08-25T15:24:38;11.45;;;5.97;;
46022;SDS011;31756;47.936;16.224;2022-08-25T15:27:03;6.45;;;5.95;;
46022;SDS011;31756;47.936;16.224;2022-08-25T15:29:30;6.70;;;6.10;;
46022;SDS011;31756;47.936;16.224;2022-08-25T15:31:56;7.10;;;6.43;;
46022;SDS011;31756;47.936;16.224;2022-08-25T15:34:21;8.25;;;6.40;;
46022;SDS011;31756;47.936;16.224;2022-08-25T15:36:48;5.93;;;5.47;;
46022;SDS011;31756;47.936;16.224;2022-08-25T15:39:13;7.70;;;6.07;;
46022;SDS011;31756;47.936;16.224;2022-08-25T15:41:39;6.40;;;5.80;;
46022;SDS011;31756;47.936;16.224;2022-08-25T15:44:05;5.85;;;5.32;;
46022;SDS011;31756;47.936;16.224;2022-08-25T15:46:31;6.13;;;5.57;;
46022;SDS011;31756;47.936;16.224;2022-08-25T15:48:56;5.90;;;5.47;;
46022;SDS011;31756;47.936;16.224;2022-08-25T15:51:23;6.10;;;5.68;;
46022;SDS011;31756;47.936;16.224;2022-08-25T15:53:49;5.22;;;4.75;;
46022;SDS011;31756;47.936;16.224;2022-08-25T15:56:14;6.22;;;5.72;;
46022;SDS011;31756;47.936;16.224;2022-08-25T15:58:43;7.97;;;6.05;;
46022;SDS011;31756;47.936;16.224;2022-08-25T16:01:12;7.32;;;6.72;;
46022;SDS011;31756;47.936;16.224;2022-08-25T16:03:38;6.88;;;5.18;;
46022;SDS011;31756;47.936;16.224;2022-08-25T16:06:03;6.68;;;6.13;;